createdAt,value
2024-03-10T00:01:08.379Z,73.63
2024-03-10T00:03:36.869Z,73.64
2024-03-10T00:06:05.182Z,73.37
2024-03-10T00:08:33.644Z,74.01
2024-03-10T00:11:01.576Z,73.92
2024-03-10T00:13:29.463Z,73.67
2024-03-10T00:15:59.542Z,74.00
2024-03-10T00:18:28.003Z,73.85
2024-03-10T00:20:56.044Z,74.29
2024-03-10T00:23:25.274Z,73.66
2024-03-10T00:25:53.140Z,74.07
2024-03-10T00:28:21.193Z,73.79
2024-03-10T00:30:49.669Z,74.36
2024-03-10T00:33:19.018Z,74.52
2024-03-10T00:35:48.078Z,73.77
2024-03-10T00:38:16.017Z,74.16
2024-03-10T00:40:43.923Z,74.29
2024-03-10T00:43:11.993Z,74.33
2024-03-10T00:45:40.235Z,74.46
2024-03-10T00:48:08.571Z,74.28
2024-03-10T00:50:37.845Z,74.40
2024-03-10T00:53:06.662Z,74.49
2024-03-10T00:55:34.512Z,74.48
2024-03-10T00:58:02.451Z,74.52
2024-03-10T01:00:30.814Z,74.58
2024-03-10T01:02:58.662Z,74.84
2024-03-10T01:05:26.769Z,74.92
2024-03-10T01:07:56.056Z,74.61
2024-03-10T01:10:24.270Z,74.59
2024-03-10T01:12:52.054Z,74.38
2024-03-10T01:15:20.306Z,74.77
2024-03-10T01:17:48.131Z,74.72
2024-03-10T01:20:16.059Z,74.74
2024-03-10T01:22:45.918Z,74.64
2024-03-10T01:25:15.151Z,74.84
2024-03-10T01:27:44.676Z,74.82
2024-03-10T01:30:13.773Z,74.96
2024-03-10T01:32:41.808Z,74.79
2024-03-10T01:35:10.472Z,75.21
2024-03-10T01:37:39.116Z,75.05
2024-03-10T01:40:08.388Z,75.09
2024-03-10T01:42:37.601Z,75.06
2024-03-10T01:45:06.220Z,75.32
2024-03-10T01:47:34.726Z,75.28
2024-03-10T01:50:03.292Z,75.01
2024-03-10T01:52:32.765Z,75.24
2024-03-10T01:55:02.617Z,75.38
2024-03-10T01:57:31.534Z,75.25
2024-03-10T02:00:03.409Z,75.28
2024-03-10T02:02:41.535Z,75.34
2024-03-10T02:05:10.374Z,75.43
2024-03-10T02:07:38.273Z,75.49
2024-03-10T02:10:08.384Z,75.73
2024-03-10T02:12:36.894Z,75.67
2024-03-10T02:15:07.875Z,75.62
2024-03-10T02:17:37.536Z,75.68
2024-03-10T02:20:15.663Z,75.66
2024-03-10T02:22:44.990Z,75.45
2024-03-10T02:25:14.229Z,75.72
2024-03-10T02:27:45.903Z,75.61
2024-03-10T02:30:20.568Z,75.74
2024-03-10T02:33:06.260Z,75.84
2024-03-10T02:35:52.138Z,75.79
2024-03-10T02:38:37.556Z,75.88
2024-03-10T02:41:22.882Z,76.26
2024-03-10T02:44:18.182Z,76.02
2024-03-10T02:47:04.065Z,75.81
2024-03-10T02:49:31.998Z,75.86
2024-03-10T02:51:59.788Z,75.88
2024-03-10T02:54:27.629Z,76.12
2024-03-10T02:56:55.884Z,76.34
2024-03-10T02:59:25.936Z,75.99
2024-03-10T03:01:53.899Z,76.12
2024-03-10T03:04:22.574Z,76.34
2024-03-10T03:06:50.374Z,76.34
2024-03-10T03:09:17.244Z,76.39
2024-03-10T03:11:45.171Z,76.20
2024-03-10T03:14:14.446Z,76.55
2024-03-10T03:16:44.499Z,76.52
2024-03-10T03:19:14.329Z,76.57
2024-03-10T03:21:42.299Z,76.52
2024-03-10T03:24:10.421Z,76.42
2024-03-10T03:26:38.691Z,76.47
2024-03-10T03:29:08.144Z,76.66
2024-03-10T03:31:35.977Z,76.75
2024-03-10T03:34:05.188Z,76.76
2024-03-10T03:36:33.905Z,76.76
2024-03-10T03:39:01.736Z,76.69
2024-03-10T03:41:29.572Z,76.69
2024-03-10T03:43:57.440Z,76.61
2024-03-10T03:46:25.275Z,76.82
2024-03-10T03:48:53.137Z,77.14
2024-03-10T03:51:22.310Z,76.90
2024-03-10T03:53:50.171Z,77.04
2024-03-10T03:56:18.146Z,77.00
2024-03-10T03:58:46.060Z,77.11
2024-03-10T04:01:14.048Z,77.19
2024-03-10T04:03:43.688Z,76.97
2024-03-10T04:06:11.497Z,77.33
2024-03-10T04:08:40.809Z,77.20
2024-03-10T04:11:08.726Z,77.05
2024-03-10T04:13:36.618Z,77.23
2024-03-10T04:16:06.925Z,77.04
2024-03-10T04:18:35.742Z,77.17
2024-03-10T04:21:05.531Z,77.45
2024-03-10T04:23:33.470Z,77.17
2024-03-10T04:26:03.739Z,77.17
2024-03-10T04:28:31.589Z,77.35
2024-03-10T04:30:59.630Z,77.52
2024-03-10T04:33:27.624Z,77.60
2024-03-10T04:35:55.486Z,77.57
2024-03-10T04:38:24.825Z,77.56
2024-03-10T04:40:52.758Z,77.75
2024-03-10T04:43:23.702Z,77.54
2024-03-10T04:45:52.410Z,77.54
2024-03-10T04:48:20.291Z,77.52
2024-03-10T04:50:48.085Z,77.85
2024-03-10T04:53:16.055Z,77.59
2024-03-10T04:55:45.102Z,77.83
2024-03-10T04:58:13.265Z,77.63
2024-03-10T05:00:42.458Z,77.95
2024-03-10T05:03:11.464Z,78.13
2024-03-10T05:05:39.808Z,77.84
2024-03-10T05:08:09.586Z,77.76
2024-03-10T05:10:37.436Z,77.81
2024-03-10T05:13:05.852Z,78.35
2024-03-10T05:15:33.665Z,78.14
2024-03-10T05:18:03.008Z,78.25
2024-03-10T05:20:30.978Z,78.36
2024-03-10T05:22:58.904Z,78.42
2024-03-10T05:25:26.775Z,78.30
2024-03-10T05:27:54.591Z,78.42
2024-03-10T05:30:23.066Z,78.29
2024-03-10T05:32:51.346Z,78.17
2024-03-10T05:35:21.366Z,78.22
2024-03-10T05:37:49.518Z,78.59
2024-03-10T05:40:17.479Z,78.35
2024-03-10T05:42:45.304Z,78.28
2024-03-10T05:45:13.140Z,78.62
2024-03-10T05:47:41.036Z,78.20
2024-03-10T05:50:09.327Z,78.71
2024-03-10T05:52:38.519Z,78.70
2024-03-10T05:55:08.342Z,78.80
2024-03-10T05:57:36.629Z,78.55
2024-03-10T06:00:07.218Z,78.88
2024-03-10T06:02:39.400Z,78.78
2024-03-10T06:05:07.723Z,78.62
2024-03-10T06:07:35.509Z,78.75
2024-03-10T06:10:06.960Z,78.76
2024-03-10T06:12:34.900Z,78.86
2024-03-10T06:15:02.721Z,78.87
2024-03-10T06:17:34.740Z,78.85
2024-03-10T06:20:20.198Z,79.02
2024-03-10T06:23:05.474Z,79.07
2024-03-10T06:25:34.625Z,79.27
2024-03-10T06:28:02.464Z,78.95
2024-03-10T06:30:30.287Z,79.05
2024-03-10T06:32:58.891Z,79.26
2024-03-10T06:35:26.875Z,79.33
2024-03-10T06:37:54.913Z,79.29
2024-03-10T06:40:23.581Z,79.35
2024-03-10T06:42:53.285Z,79.08
2024-03-10T06:45:21.791Z,79.61
2024-03-10T06:47:49.701Z,79.67
2024-03-10T06:50:17.730Z,79.67
2024-03-10T06:52:47.631Z,79.37
2024-03-10T06:55:16.782Z,79.69
2024-03-10T06:57:44.946Z,79.66
2024-03-10T07:00:16.124Z,79.87
2024-03-10T07:02:47.119Z,79.81
2024-03-10T07:05:16.836Z,79.69
2024-03-10T07:07:45.065Z,79.68
2024-03-10T07:10:13.633Z,80.06
2024-03-10T07:12:41.652Z,80.00
2024-03-10T07:15:11.171Z,79.89
2024-03-10T07:17:42.505Z,79.77
2024-03-10T07:20:11.876Z,79.99
2024-03-10T07:22:42.856Z,80.31
2024-03-10T07:25:12.124Z,80.25
2024-03-10T07:27:40.813Z,80.55
2024-03-10T07:30:10.891Z,80.13
2024-03-10T07:32:40.686Z,80.45
2024-03-10T07:35:10.321Z,80.46
2024-03-10T07:37:38.433Z,80.67
2024-03-10T07:40:08.289Z,80.19
2024-03-10T07:42:36.120Z,80.02
2024-03-10T07:45:04.177Z,80.36
2024-03-10T07:47:32.576Z,80.72
2024-03-10T07:50:01.962Z,80.83
2024-03-10T07:52:31.281Z,80.48
2024-03-10T07:54:59.078Z,80.65
2024-03-10T07:57:26.922Z,80.66
2024-03-10T07:59:54.735Z,80.84
2024-03-10T08:02:22.689Z,81.21
2024-03-10T08:04:50.654Z,80.53
2024-03-10T08:07:20.050Z,80.51
2024-03-10T08:09:47.840Z,81.37
2024-03-10T08:12:15.794Z,81.56
2024-03-10T08:14:43.614Z,81.60
2024-03-10T08:17:11.588Z,80.99
2024-03-10T08:19:39.455Z,80.82
2024-03-10T08:22:07.710Z,80.98
2024-03-10T08:24:38.495Z,81.31
2024-03-10T08:27:09.319Z,81.09
2024-03-10T08:29:37.705Z,81.58
2024-03-10T08:32:07.297Z,81.14
2024-03-10T08:34:35.136Z,81.48
2024-03-10T08:37:04.096Z,81.87
2024-03-10T08:39:32.238Z,81.46
2024-03-10T08:42:01.374Z,81.99
2024-03-10T08:44:29.402Z,81.94
2024-03-10T08:46:57.331Z,81.70
2024-03-10T08:49:25.207Z,81.65
2024-03-10T08:51:53.056Z,81.88
2024-03-10T08:54:20.893Z,81.96
2024-03-10T08:56:49.950Z,82.18
2024-03-10T08:59:19.823Z,82.11
2024-03-10T09:01:47.824Z,81.79
2024-03-10T09:04:16.972Z,82.33
2024-03-10T09:06:45.804Z,82.09
2024-03-10T09:09:15.799Z,82.14
2024-03-10T09:11:43.661Z,82.35
2024-03-10T09:14:11.787Z,82.20
2024-03-10T09:16:40.964Z,82.46
2024-03-10T09:19:08.916Z,81.98
2024-03-10T09:21:37.416Z,82.28
2024-03-10T09:24:06.075Z,82.85
2024-03-10T09:26:33.997Z,82.71
2024-03-10T09:29:02.376Z,81.96
2024-03-10T09:31:31.624Z,83.12
2024-03-10T09:34:01.309Z,83.14
2024-03-10T09:36:29.603Z,82.02
2024-03-10T09:38:57.516Z,82.76
2024-03-10T09:41:27.329Z,82.53
2024-03-10T09:43:58.403Z,82.67
2024-03-10T09:46:26.501Z,82.91
2024-03-10T09:48:54.602Z,83.38
2024-03-10T09:51:23.908Z,82.64
2024-03-10T09:53:51.991Z,82.35
2024-03-10T09:56:22.651Z,83.18
2024-03-10T09:59:00.729Z,83.13
2024-03-10T10:01:30.811Z,82.54
2024-03-10T10:04:03.013Z,82.67
2024-03-10T10:06:34.009Z,83.20
2024-03-10T10:09:08.890Z,82.66
2024-03-10T10:11:36.904Z,82.71
2024-03-10T10:14:08.748Z,82.84
2024-03-10T10:16:45.828Z,83.02
2024-03-10T10:19:18.309Z,82.92
2024-03-10T10:21:48.384Z,82.79
2024-03-10T10:24:16.991Z,82.87
2024-03-10T10:26:59.846Z,83.29
2024-03-10T10:29:28.986Z,83.13
2024-03-10T10:31:58.107Z,82.99
2024-03-10T10:34:26.636Z,83.28
2024-03-10T10:36:57.361Z,82.99
2024-03-10T10:39:28.401Z,83.20
2024-03-10T10:42:01.782Z,82.86
2024-03-10T10:44:31.371Z,83.17
2024-03-10T10:47:02.091Z,83.26
2024-03-10T10:49:32.733Z,83.18
2024-03-10T10:52:03.318Z,83.05
2024-03-10T10:54:31.326Z,82.97
2024-03-10T10:57:01.456Z,83.12
2024-03-10T10:59:29.990Z,83.29
2024-03-10T11:01:58.185Z,82.92
2024-03-10T11:04:26.573Z,82.98
2024-03-10T11:06:57.977Z,83.16
2024-03-10T11:09:32.051Z,83.04
2024-03-10T11:12:01.136Z,82.96
2024-03-10T11:14:29.694Z,83.03
2024-03-10T11:17:14.355Z,82.70
2024-03-10T11:19:43.603Z,83.12
2024-03-10T11:22:12.114Z,82.85
2024-03-10T11:24:41.576Z,82.87
2024-03-10T11:27:13.662Z,82.87
2024-03-10T11:29:42.859Z,83.12
2024-03-10T11:32:36.651Z,82.79
2024-03-10T11:35:09.386Z,82.67
2024-03-10T11:37:38.567Z,83.06
2024-03-10T11:40:11.422Z,82.91
2024-03-10T11:42:39.671Z,82.60
2024-03-10T11:45:10.442Z,82.90
2024-03-10T11:47:38.524Z,82.63
2024-03-10T11:50:08.036Z,82.54
2024-03-10T11:52:35.988Z,82.80
2024-03-10T11:55:12.559Z,82.55
2024-03-10T11:57:42.849Z,82.87
2024-03-10T12:00:17.219Z,82.91
2024-03-10T12:02:46.023Z,82.58
2024-03-10T12:05:17.261Z,82.27
2024-03-10T12:07:48.077Z,82.43
2024-03-10T12:10:20.435Z,82.74
2024-03-10T12:12:53.463Z,82.65
2024-03-10T12:15:23.071Z,82.39
2024-03-10T12:17:51.555Z,82.44
2024-03-10T12:20:20.765Z,82.37
2024-03-10T12:22:49.656Z,82.54
2024-03-10T12:25:19.542Z,82.50
2024-03-10T12:27:49.171Z,82.12
2024-03-10T12:30:20.690Z,82.37
2024-03-10T12:32:52.174Z,82.03
2024-03-10T12:35:22.460Z,82.26
2024-03-10T12:37:51.054Z,82.18
2024-03-10T12:40:19.109Z,82.21
2024-03-10T12:42:48.424Z,81.87
2024-03-10T12:45:18.088Z,82.10
2024-03-10T12:47:47.045Z,81.74
2024-03-10T12:50:15.778Z,81.67
2024-03-10T12:52:43.938Z,81.79
2024-03-10T12:55:12.478Z,81.94
2024-03-10T12:57:41.453Z,81.92
2024-03-10T13:00:28.091Z,81.84
2024-03-10T13:03:00.190Z,81.39
2024-03-10T13:05:30.784Z,81.71
2024-03-10T13:08:01.768Z,81.38
2024-03-10T13:10:30.056Z,81.63
2024-03-10T13:12:58.236Z,81.59
2024-03-10T13:15:26.649Z,81.61
2024-03-10T13:17:55.185Z,81.66
2024-03-10T13:20:24.534Z,81.42
2024-03-10T13:22:52.578Z,81.25
2024-03-10T13:25:20.966Z,81.13
2024-03-10T13:27:49.001Z,81.00
2024-03-10T13:30:17.441Z,81.61
2024-03-10T13:32:46.348Z,81.49
2024-03-10T13:35:15.589Z,80.87
2024-03-10T13:37:47.455Z,81.21
2024-03-10T13:40:18.478Z,80.82
2024-03-10T13:42:47.280Z,81.19
2024-03-10T13:45:23.068Z,80.96
2024-03-10T13:48:00.951Z,80.93
2024-03-10T13:50:29.647Z,80.80
2024-03-10T13:52:59.436Z,80.87
2024-03-10T13:55:27.913Z,81.05
2024-03-10T13:57:56.117Z,80.93
2024-03-10T14:00:26.657Z,80.96
2024-03-10T14:02:56.242Z,80.49
2024-03-10T14:05:25.603Z,80.74
2024-03-10T14:07:53.970Z,80.55
2024-03-10T14:10:23.350Z,80.64
2024-03-10T14:12:51.300Z,80.66
2024-03-10T14:15:21.716Z,80.75
2024-03-10T14:17:49.737Z,80.75
2024-03-10T14:20:19.576Z,80.52
2024-03-10T14:22:49.826Z,80.65
2024-03-10T14:25:18.654Z,80.68
2024-03-10T14:27:50.880Z,80.14
2024-03-10T14:30:22.368Z,80.09
2024-03-10T14:32:54.312Z,80.08
2024-03-10T14:35:25.089Z,80.52
2024-03-10T14:37:53.850Z,80.42
2024-03-10T14:40:23.123Z,80.12
2024-03-10T14:42:55.084Z,80.10
2024-03-10T14:45:23.650Z,80.31
2024-03-10T14:47:52.313Z,80.04
2024-03-10T14:50:22.778Z,79.78
2024-03-10T14:52:53.497Z,79.84
2024-03-10T14:55:21.558Z,80.04
2024-03-10T14:57:49.399Z,79.80
2024-03-10T15:00:34.270Z,79.78
2024-03-10T15:03:03.241Z,79.76
2024-03-10T15:05:31.564Z,79.74
2024-03-10T15:07:59.765Z,79.70
2024-03-10T15:10:28.976Z,80.05
2024-03-10T15:12:57.134Z,79.89
2024-03-10T15:15:26.375Z,79.71
2024-03-10T15:18:02.074Z,79.73
2024-03-10T15:20:29.971Z,79.53
2024-03-10T15:23:00.151Z,79.72
2024-03-10T15:25:30.635Z,79.63
2024-03-10T15:27:59.012Z,79.44
2024-03-10T15:30:29.017Z,79.59
2024-03-10T15:32:57.076Z,79.44
2024-03-10T15:35:25.047Z,79.17
2024-03-10T15:37:53.493Z,79.24
2024-03-10T15:40:22.564Z,79.49
2024-03-10T15:42:50.983Z,79.31
2024-03-10T15:45:21.948Z,79.31
2024-03-10T15:47:55.300Z,79.01
2024-03-10T15:50:23.741Z,79.34
2024-03-10T15:52:53.008Z,79.02
2024-03-10T15:55:22.724Z,79.32
2024-03-10T15:57:51.786Z,79.01
2024-03-10T16:00:21.858Z,78.92
2024-03-10T16:02:55.134Z,78.86
2024-03-10T16:05:31.060Z,78.97
2024-03-10T16:07:59.729Z,79.07
2024-03-10T16:10:27.843Z,79.07
2024-03-10T16:12:56.079Z,79.07
2024-03-10T16:15:28.865Z,79.15
2024-03-10T16:17:58.994Z,78.79
2024-03-10T16:20:27.133Z,78.81
2024-03-10T16:22:56.916Z,78.77
2024-03-10T16:25:25.256Z,78.93
2024-03-10T16:27:53.329Z,78.92
2024-03-10T16:30:21.412Z,78.75
2024-03-10T16:32:51.298Z,78.67
2024-03-10T16:35:21.138Z,79.00
2024-03-10T16:37:50.767Z,78.76
2024-03-10T16:40:19.902Z,78.69
2024-03-10T16:42:47.817Z,78.88
2024-03-10T16:45:18.095Z,78.56
2024-03-10T16:47:47.725Z,78.79
2024-03-10T16:50:23.725Z,78.71
2024-03-10T16:52:52.728Z,78.46
2024-03-10T16:55:21.693Z,78.66
2024-03-10T16:57:49.577Z,78.51
2024-03-10T17:00:18.262Z,78.63
2024-03-10T17:02:47.217Z,78.58
2024-03-10T17:05:17.062Z,78.44
2024-03-10T17:07:46.499Z,78.60
2024-03-10T17:10:14.990Z,78.55
2024-03-10T17:12:43.014Z,78.29
2024-03-10T17:15:16.738Z,78.74
2024-03-10T17:17:45.637Z,78.55
2024-03-10T17:20:14.588Z,78.48
2024-03-10T17:22:43.009Z,78.45
2024-03-10T17:25:13.981Z,78.44
2024-03-10T17:27:42.758Z,78.61
2024-03-10T17:30:11.831Z,78.56
2024-03-10T17:32:42.642Z,78.49
2024-03-10T17:35:11.263Z,78.42
2024-03-10T17:37:39.337Z,78.42
2024-03-10T17:40:08.380Z,78.01
2024-03-10T17:42:37.622Z,78.45
2024-03-10T17:45:06.549Z,78.33
2024-03-10T17:47:36.917Z,78.39
2024-03-10T17:50:06.708Z,78.39
2024-03-10T17:52:34.953Z,78.23
2024-03-10T17:55:07.088Z,78.31
2024-03-10T17:57:35.091Z,78.54
2024-03-10T18:00:06.337Z,78.28
2024-03-10T18:02:35.459Z,78.48
2024-03-10T18:05:05.102Z,78.35
2024-03-10T18:07:33.488Z,78.39
2024-03-10T18:10:05.184Z,78.32
2024-03-10T18:12:33.532Z,78.15
2024-03-10T18:15:01.413Z,78.24
2024-03-10T18:17:30.962Z,78.30
2024-03-10T18:19:58.871Z,78.36
2024-03-10T18:22:26.708Z,78.33
2024-03-10T18:24:54.898Z,78.43
2024-03-10T18:27:23.114Z,78.64
2024-03-10T18:29:51.043Z,78.10
2024-03-10T18:32:18.951Z,78.30
2024-03-10T18:34:48.193Z,77.82
2024-03-10T18:37:16.113Z,78.16
2024-03-10T18:39:44.179Z,78.21
2024-03-10T18:42:12.075Z,78.25
2024-03-10T18:44:39.947Z,78.46
2024-03-10T18:47:07.861Z,78.25
2024-03-10T18:49:35.826Z,78.12
2024-03-10T18:52:05.898Z,78.20
2024-03-10T18:54:33.760Z,78.38
2024-03-10T18:57:03.364Z,78.40
2024-03-10T18:59:33.016Z,78.19
2024-03-10T19:02:00.984Z,77.99
2024-03-10T19:04:29.018Z,78.21
2024-03-10T19:06:56.849Z,78.49
2024-03-10T19:09:26.074Z,78.53
2024-03-10T19:11:55.190Z,77.91
2024-03-10T19:14:24.279Z,78.44
2024-03-10T19:16:52.808Z,78.13
2024-03-10T19:19:20.675Z,78.10
2024-03-10T19:21:49.156Z,78.60
2024-03-10T19:24:17.019Z,78.41
2024-03-10T19:26:46.377Z,78.29
2024-03-10T19:29:14.256Z,78.24
2024-03-10T19:31:44.710Z,78.49
2024-03-10T19:34:12.660Z,78.45
2024-03-10T19:36:41.390Z,78.34
2024-03-10T19:39:10.306Z,78.47
2024-03-10T19:41:38.363Z,78.64
2024-03-10T19:44:07.886Z,78.78
2024-03-10T19:46:35.963Z,78.63
2024-03-10T19:49:04.969Z,78.07
2024-03-10T19:51:33.653Z,78.15
2024-03-10T19:54:01.665Z,78.58
2024-03-10T19:56:29.534Z,77.96
2024-03-10T19:58:57.433Z,78.62
2024-03-10T20:01:27.755Z,78.20
2024-03-10T20:03:57.652Z,78.54
2024-03-10T20:06:25.892Z,78.34
2024-03-10T20:08:53.740Z,78.48
2024-03-10T20:11:21.680Z,78.08
2024-03-10T20:13:51.081Z,78.60
2024-03-10T20:16:18.907Z,78.56
2024-03-10T20:18:48.172Z,78.24
2024-03-10T20:21:16.036Z,78.34
2024-03-10T20:23:43.953Z,78.07
2024-03-10T20:26:14.270Z,78.94
2024-03-10T20:28:42.148Z,78.69
2024-03-10T20:31:09.996Z,78.71
2024-03-10T20:33:39.593Z,78.54
2024-03-10T20:36:09.832Z,78.63
2024-03-10T20:38:40.747Z,78.62
2024-03-10T20:41:10.110Z,78.36
2024-03-10T20:43:37.919Z,78.82
2024-03-10T20:46:05.961Z,78.66
2024-03-10T20:48:34.159Z,77.86
2024-03-10T20:51:02.577Z,78.61
2024-03-10T20:53:31.907Z,78.96
2024-03-10T20:56:00.166Z,78.43
2024-03-10T20:58:28.399Z,78.99
2024-03-10T21:00:56.418Z,78.24
2024-03-10T21:03:25.223Z,78.57
2024-03-10T21:05:53.259Z,78.44
2024-03-10T21:08:21.270Z,78.32
2024-03-10T21:10:51.417Z,79.09
2024-03-10T21:13:19.358Z,78.34
2024-03-10T21:15:47.301Z,78.75
2024-03-10T21:18:15.196Z,78.65
2024-03-10T21:20:43.634Z,78.96
2024-03-10T21:23:13.500Z,78.79
2024-03-10T21:25:41.812Z,79.32
2024-03-10T21:28:12.795Z,78.61
2024-03-10T21:30:41.436Z,79.26
2024-03-10T21:33:09.787Z,79.30
2024-03-10T21:35:39.563Z,78.74
2024-03-10T21:38:09.551Z,78.76
2024-03-10T21:40:38.761Z,78.74
2024-03-10T21:43:07.587Z,79.38
2024-03-10T21:45:39.493Z,78.97
2024-03-10T21:48:08.801Z,79.31
2024-03-10T21:50:37.846Z,79.06
2024-03-10T21:53:06.188Z,79.43
2024-03-10T21:55:34.189Z,78.95
2024-03-10T21:58:02.321Z,78.70
2024-03-10T22:00:32.898Z,78.97
2024-03-10T22:03:02.151Z,79.46
2024-03-10T22:05:31.539Z,79.29
2024-03-10T22:07:59.750Z,79.42
2024-03-10T22:10:27.612Z,78.96
2024-03-10T22:12:55.477Z,79.07
2024-03-10T22:15:23.434Z,79.21
2024-03-10T22:17:53.786Z,79.36
2024-03-10T22:20:25.718Z,79.21
2024-03-10T22:22:56.156Z,79.24
2024-03-10T22:25:26.571Z,79.52
2024-03-10T22:27:55.258Z,79.32
2024-03-10T22:30:26.893Z,79.58
2024-03-10T22:32:55.734Z,78.91
2024-03-10T22:35:28.154Z,79.61
2024-03-10T22:37:57.070Z,79.34
2024-03-10T22:40:25.486Z,78.69
2024-03-10T22:42:55.363Z,79.60
2024-03-10T22:45:30.308Z,78.97
2024-03-10T22:48:01.864Z,80.05
2024-03-10T22:50:31.831Z,79.87
2024-03-10T22:53:03.821Z,79.45
2024-03-10T22:55:33.355Z,79.64
2024-03-10T22:58:02.157Z,79.52
2024-03-10T23:00:38.797Z,79.61
2024-03-10T23:06:35.226Z,80.10
2024-03-10T23:09:05.793Z,79.74
2024-03-10T23:11:33.716Z,79.82
2024-03-10T23:14:01.683Z,78.98
2024-03-10T23:16:29.537Z,79.32
2024-03-10T23:18:57.323Z,79.81
2024-03-10T23:21:25.154Z,79.19
2024-03-10T23:23:54.290Z,79.35
2024-03-10T23:26:22.299Z,79.83
2024-03-10T23:28:50.156Z,79.61
2024-03-10T23:31:18.557Z,80.02
2024-03-10T23:33:46.375Z,79.24
2024-03-10T23:36:14.195Z,79.56
2024-03-10T23:38:43.358Z,80.42
2024-03-10T23:41:13.168Z,80.10
2024-03-10T23:43:42.085Z,80.20
2024-03-10T23:46:09.908Z,79.72
2024-03-10T23:48:37.807Z,80.18
2024-03-10T23:51:06.430Z,79.46
2024-03-10T23:53:35.011Z,80.24
2024-03-10T23:56:05.843Z,80.33
2024-03-10T23:58:37.795Z,79.45
